Loveland (283, 1166, DV1, 6914, 625) Station Data

Red Flag Warning: No
Fire Weather Zone: 250
SDGE Region: Eastern
Lat/Lon: 32.808/-116.788

Observations

Time Wind Speed/Gust Temp(F) RH Fuel Moist Fuel Temp(F) Dewpt(F) Tmax(F) Tmin(F) Accum Precip 10-min Precip SL Press(mb)
5/24 8:30am 253 5 G 9 65° 56% - - 49° 71.1° 52.6° - - 878.0
5/24 8:20am 65 4 G 7 70° 35% - - 41° 71.1° 52.6° - - 872.0
5/24 8:10am 54 7 G 11 68° 40% - - 43° 68.6° 52.6° - - 873.0
5/24 8:00am 31 8 G 11 66° 43% - - 43° 68.5° 52.6° - - 874.0
5/24 7:50am 48 4 G 6 64° 51% - - 45° 68.5° 52.6° - - 877.0
5/24 7:40am 31 5 G 7 61° 60% - - 47° 68.5° 52.6° - - 880.0
5/24 7:30am 48 5 G 6 58° 75% - - 51° 68.5° 52.6° - - 886.0
5/24 7:20am 42 7 G 10 56° 92% - - 54° 68.5° 52.6° - - 896.0
5/24 7:10am 28 7 G 9 55° 100% - - 55° 68.5° 52.6° - - 906.0
5/24 7:00am 25 6 G 8 53° 100% - - 54° 68.5° 52.6° - - 906.0
5/24 6:50am 249 7 G 10 53° 100% - - 53° 68.5° 52.6° - - 902.0
5/24 6:40am 244 11 G 15 53° 98% - - 52° 68.5° 52.7° - - 894.0
5/24 6:30am 253 11 G 16 54° 80% - - 48° 68.5° 52.9° - - 886.0
5/24 6:20am 261 7 G 9 59° 54% - - 42° 68.5° 57.3° - - 877.0
5/24 6:10am 251 8 G 11 62° 42% - - 38° 68.5° 58.6° - - 872.0
5/24 6:00am 4 5 G 8 67° 27% - - 33° 68.5° 60.3° - - 868.0
5/24 5:50am 15 7 G 8 67° 28% - - 33° 68.5° 60.3° - - 868.0
5/24 5:40am 21 8 G 10 66° 29% - - 33° 68.5° 60.3° - - 868.0
5/24 5:30am 28 8 G 10 66° 30% - - 34° 68.5° 60.3° - - 868.0
5/24 5:20am 28 9 G 10 65° 33% - - 35° 68.5° 60.3° - - 870.0
5/24 5:10am 22 9 G 11 64° 35% - - 36° 68.5° 60.3° - - 870.0
5/24 5:00am 19 9 G 11 64° 36% - - 36° 68.5° 60.3° - - 871.0
5/24 4:50am 19 9 G 10 64° 37% - - 37° 68.5° 60.3° - - 871.0
5/24 4:40am 22 7 G 9 65° 36% - - 37° 68.5° 60.3° - - 871.0
5/24 4:30am 27 6 G 7 63° 40% - - 39° 68.5° 60.3° - - 872.0
5/24 4:20am 25 4 G 5 63° 42% - - 39° 68.5° 60.3° - - 873.0
5/24 4:10am 39 5 G 6 61° 47% - - 41° 68.5° 60.3° - - 875.0
5/24 4:00am 44 3 G 5 61° 52% - - 44° 68.5° 60.3° - - 877.0
5/24 3:50am 41 1 G 2 61° 52% - - 43° 68.5° 60.3° - - 877.0
5/24 3:40am 58 1 G 2 61° 54% - - 44° 68.5° 60.3° - - 878.0
5/24 3:30am 121 0 G 1 61° 54% - - 45° 68.5° 60.9° - - 877.0
5/24 3:20am 278 3 G 5 62° 54% - - 45° 68.5° 61.1° - - 878.0
5/24 3:10am 255 4 G 5 63° 50% - - 44° 68.5° 61.2° - - 876.0
5/24 3:00am 245 5 G 6 64° 45% - - 43° 68.5° 62.8° - - 874.0
5/24 2:50am 15 2 G 4 67° 39% - - 41° 68.5° 64.5° - - 872.0
5/24 2:40am 28 2 G 4 67° 39% - - 41° 68.5° 64.5° - - 873.0
5/24 2:30am 16 3 G 5 68° 40% - - 43° 68.5° 64.5° - - 873.0
5/24 2:20am 33 3 G 4 68° 41% - - 43° 68.5° 64.5° - - 874.0
5/24 2:10am 46 3 G 4 67° 43% - - 44° 68.3° 64.5° - - 874.0
5/24 2:00am 104 2 G 3 68° 43% - - 44° 68.3° 64.5° - - 874.0
5/24 1:50am 38 2 G 5 68° 43% - - 45° 68.3° 64.5° - - 874.0
5/24 1:40am 23 4 G 5 68° 42% - - 44° 68.3° 64.5° - - 874.0
5/24 1:30am 30 3 G 5 67° 42% - - 44° 67.7° 64.5° - - 874.0
5/24 1:20am 15 4 G 7 67° 44% - - 44° 67.4° 64.5° - - 875.0
5/24 1:10am 22 7 G 9 66° 46% - - 45° 66.7° 64.5° - - 875.0
5/24 1:00am 26 8 G 10 66° 51% - - 47° 66.2° 64.5° - - 877.0
5/24 12:50am 20 7 G 8 65° 55% - - 49° 66.2° 64.5° - - 879.0
5/24 12:40am 30 7 G 8 65° 57% - - 49° 66.2° 64.5° - - 880.0
5/24 12:30am 29 7 G 9 65° 59% - - 51° 66.2° 64.6° - - 881.0
5/24 12:20am 27 7 G 8 66° 60% - - 52° 66.2° 64.6° - - 881.0
5/24 12:10am 36 3 G 6 65° 62% - - 52° 65.6° 64.6° - - 882.0
5/24 12:00am 242 2 G 3 65° 62% - - 52° 84.5° 64.8° - - 882.0
5/23 11:50pm 250 2 G 3 66° 62% - - 52° 84.5° 64.8° - - 882.0
5/23 11:40pm 260 2 G 4 65° 63% - - 52° 84.5° 64.8° - - 882.0
5/23 11:30pm 249 3 G 5 66° 62% - - 53° 84.5° 65° - - 882.0
5/23 11:20pm 326 2 G 4 68° 57% - - 52° 84.5° 66.2° - - 880.0
5/23 11:10pm 15 4 G 6 68° 58% - - 52° 84.5° 66.2° - - 881.0
5/23 11:00pm 17 5 G 6 68° 59% - - 53° 84.5° 66.2° - - 881.0
5/23 10:50pm 20 5 G 6 68° 59% - - 53° 84.5° 66.2° - - 881.0
5/23 10:40pm 15 5 G 5 68° 59% - - 53° 84.5° 66.2° - - 881.0
5/23 10:30pm 19 4 G 5 68° 60% - - 53° 84.5° 66.2° - - 881.0
5/23 10:20pm 25 4 G 5 68° 60% - - 53° 84.5° 66.2° - - 882.0
5/23 10:10pm 24 4 G 5 67° 61% - - 53° 84.5° 66.2° - - 882.0
5/23 10:00pm 32 4 G 5 67° 61% - - 53° 84.5° 66.2° - - 882.0
5/23 9:50pm 35 4 G 5 68° 61% - - 54° 84.5° 66.2° - - 882.0
5/23 9:40pm 32 4 G 4 67° 61% - - 54° 84.5° 66.2° - - 882.0
5/23 9:30pm 20 1 G 3 67° 60% - - 53° 84.5° 66.2° - - 882.0
5/23 9:20pm 258 0 G 2 67° 62% - - 53° 84.5° 66.2° - - 882.0
5/23 9:10pm 260 2 G 4 68° 60% - - 53° 84.5° 66.2° - - 882.0
5/23 9:00pm 254 2 G 3 68° 58% - - 53° 84.5° 66.2° - - 881.0
5/23 8:50pm 255 3 G 3 69° 57% - - 53° 84.5° 66.2° - - 881.0
5/23 8:40pm 256 3 G 4 70° 56% - - 53° 84.5° 66.2° - - 881.0
5/23 8:30pm 258 3 G 4 70° 55% - - 53° 84.5° 66.2° - - 880.0
5/23 8:20pm 254 3 G 4 71° 54% - - 53° 84.5° 66.2° - - 880.0
5/23 8:10pm 248 2 G 3 71° 52% - - 53° 84.5° 66.2° - - 880.0
5/23 8:00pm 259 2 G 3 72° 51% - - 53° 84.5° 66.2° - - 880.0
5/23 7:50pm 250 2 G 3 72° 52% - - 53° 84.5° 66.2° - - 880.0
5/23 7:40pm 239 0 G 2 73° 49% - - 52° 84.5° 66.2° - - 879.0
5/23 7:30pm 202 1 G 2 72° 50% - - 53° 84.5° 66.2° - - 880.0
5/23 7:20pm 245 2 G 4 73° 50% - - 53° 84.5° 66.2° - - 880.0
5/23 7:10pm 265 3 G 4 73° 49% - - 53° 84.5° 66.2° - - 880.0
5/23 7:00pm 248 4 G 7 73° 49% - - 53° 84.5° 66.2° - - 880.0
5/23 6:50pm 250 6 G 9 74° 48% - - 53° 84.5° 66.2° - - 880.0
5/23 6:40pm 246 7 G 10 74° 47% - - 52° 84.5° 66.2° - - 880.0
5/23 6:30pm 245 8 G 12 74° 46% - - 52° 84.5° 66.2° - - 880.0
5/23 6:20pm 242 8 G 12 75° 45% - - 52° 84.5° 66.2° - - 880.0
5/23 6:10pm 242 8 G 13 76° 44% - - 52° 84.5° 66.2° - - 880.0
5/23 6:00pm 251 9 G 13 76° 42% - - 52° 84.5° 66.2° - - 880.0
5/23 5:50pm 254 10 G 14 78° 40% - - 51° 84.5° 66.2° - - 880.0
5/23 5:40pm 242 8 G 14 81° 33% - - 50° 84.5° 66.2° - - 878.0
5/23 5:30pm 239 7 G 11 82° 31% - - 48° 84.5° 66.2° - - 878.0
5/23 5:20pm 245 7 G 12 82° 31% - - 48° 84.5° 66.2° - - 878.0
5/23 5:10pm 246 5 G 10 83° 31% - - 49° 84.5° 66.2° - - 878.0
5/23 5:00pm 240 4 G 9 82° 31% - - 48° 84.5° 66.2° - - 878.0
5/23 4:50pm 235 5 G 9 83° 30% - - 48° 84.5° 66.2° - - 877.0
5/23 4:40pm 245 4 G 9 82° 30% - - 48° 84.5° 66.2° - - 877.0
5/23 4:30pm 233 7 G 13 82° 31% - - 48° 84.5° 66.2° - - 877.0
5/23 4:20pm 232 7 G 13 82° 30% - - 48° 84.5° 66.2° - - 877.0
5/23 4:10pm 237 7 G 12 82° 31% - - 48° 84.5° 66.2° - - 877.0
5/23 4:00pm 234 7 G 13 81° 32% - - 49° 84.5° 66.2° - - 877.0
5/23 3:50pm 232 6 G 13 80° 39% - - 53° 84.5° 66.2° - - 879.0
5/23 3:40pm 233 6 G 12 79° 40% - - 53° 84.5° 66.2° - - 880.0
5/23 3:30pm 222 7 G 12 80° 41% - - 54° 84.5° 66.2° - - 880.0
5/23 3:20pm 227 6 G 12 79° 42% - - 54° 84.5° 66.2° - - 880.0
5/23 3:10pm 227 6 G 10 79° 43% - - 55° 84.5° 66.2° - - 880.0
5/23 3:00pm 228 8 G 16 78° 45% - - 55° 84.5° 66.2° - - 881.0
5/23 2:50pm 226 9 G 17 79° 44% - - 55° 84.5° 66.2° - - 880.0
5/23 2:40pm 233 9 G 16 79° 44% - - 55° 84.5° 66.2° - - 880.0
5/23 2:30pm 230 8 G 14 79° 44% - - 55° 84.5° 66.2° - - 880.0
5/23 2:20pm 227 8 G 14 78° 45% - - 55° 84.5° 66.2° - - 880.0
5/23 2:10pm 225 8 G 15 78° 45% - - 55° 84.5° 66.2° - - 880.0
5/23 2:00pm 228 9 G 15 78° 46% - - 55° 84.5° 66.2° - - 881.0
5/23 1:50pm 234 8 G 14 78° 45% - - 55° 84.5° 66.2° - - 880.0
5/23 1:40pm 225 9 G 14 78° 45% - - 55° 84.5° 66.2° - - 880.0
5/23 1:30pm 228 8 G 13 79° 43% - - 55° 84.5° 66.2° - - 880.0
5/23 1:20pm 236 8 G 13 78° 45% - - 55° 84.5° 66.2° - - 880.0
5/23 1:10pm 239 8 G 15 78° 45% - - 55° 84.5° 66.2° - - 880.0
5/23 1:00pm 231 8 G 14 78° 45% - - 55° 84.5° 66.2° - - 880.0
5/23 12:50pm 234 10 G 16 78° 44% - - 55° 84.5° 66.2° - - 880.0
5/23 12:40pm 234 10 G 16 79° 42% - - 55° 84.5° 66.2° - - 880.0
5/23 12:30pm 235 9 G 16 80° 42% - - 54° 84.5° 66.2° - - 879.0
5/23 12:20pm 239 11 G 19 79° 41% - - 54° 84.5° 66.2° - - 879.0
5/23 12:10pm 243 10 G 16 80° 39% - - 53° 84.5° 66.2° - - 878.0
5/23 12:00pm 249 9 G 14 81° 36% - - 52° 84.5° 66.2° - - 878.0
5/23 11:50am 238 7 G 12 83° 32% - - 50° 84.5° 66.2° - - 876.0
5/23 11:40am 237 8 G 13 84° 29% - - 48° 84.5° 66.2° - - 875.0
5/23 11:30am 243 8 G 14 83° 28% - - 47° 84.5° 66.2° - - 875.0
5/23 11:20am 240 9 G 13 83° 28% - - 46° 84.5° 66.2° - - 875.0
5/23 11:10am 237 8 G 12 83° 25% - - 44° 84.5° 66.2° - - 874.0
5/23 11:00am 247 7 G 13 83° 24% - - 43° 84.5° 66.2° - - 873.0
5/23 10:50am 244 6 G 12 83° 24% - - 42° 84.5° 66.2° - - 873.0
5/23 10:40am 244 6 G 10 84° 24% - - 43° 84.5° 66.2° - - 873.0
5/23 10:30am 239 4 G 8 84° 23% - - 42° 84.3° 66.2° - - 872.0
5/23 10:20am 237 3 G 6 83° 24% - - 42° 83.8° 66.2° - - 872.0
5/23 10:10am 247 3 G 5 82° 25% - - 43° 82.9° 66.2° - - 872.0
5/23 10:00am 247 3 G 5 81° 27% - - 44° 82.9° 66.2° - - 873.0
5/23 9:50am 257 3 G 5 81° 26% - - 43° 82.9° 66.2° - - 872.0
5/23 9:40am 201 2 G 4 82° 23% - - 40° 82.9° 66.2° - - 871.0
5/23 9:30am 152 2 G 4 82° 22% - - 39° 82.9° 66.2° - - 870.0
5/23 9:20am 175 1 G 3 82° 21% - - 37° 82.9° 66.2° - - 869.0
5/23 9:10am 180 1 G 2 81° 20% - - 36° 81.2° 66.2° - - 869.0
5/23 9:00am 148 1 G 3 79° 21% - - 36° 80.1° 66.2° - - 869.0
5/23 8:50am 78 2 G 5 78° 22% - - 36° 78.6° 66.2° - - 869.0
5/23 8:40am 67 3 G 5 76° 25% - - 38° 77° 66.2° - - 869.0
5/23 8:30am 65 4 G 5 75° 25% - - 36° 75.9° 66.2° - - 869.0
5/23 8:20am 57 4 G 6 74° 26% - - 37° 74.8° 66.2° - - 869.0
5/23 8:10am 65 2 G 4 74° 28% - - 38° 74.7° 66.2° - - 870.0
5/23 8:00am 72 2 G 2 73° 29% - - 39° 73.7° 66.2° - - 870.0
5/23 7:50am 65 2 G 3 73° 29% - - 39° 73.7° 66.2° - - 870.0
5/23 7:40am 242 0 G 0 72° 28% - - 37° 73.4° 66.2° - - 869.0
5/23 7:30am 354 0 G 1 73° 27% - - 37° 73.4° 66.2° - - 869.0
5/23 7:20am 27 0 G 1 73° 26% - - 36° 73.4° 66.2° - - 869.0
5/23 7:10am 32 1 G 2 72° 24% - - 33° 72.3° 66.2° - - 868.0
5/23 7:00am 51 2 G 6 72° 25% - - 33° 71.9° 66.2° - - 868.0
5/23 6:50am 10 5 G 7 70° 26% - - 34° 71.7° 66.2° - - 868.0
5/23 6:40am 10 5 G 6 70° 26% - - 34° 70.8° 66.2° - - 868.0
5/23 6:30am 15 6 G 7 69° 25% - - 32° 70.8° 66.2° - - 867.0
5/23 6:20am 18 6 G 7 70° 24% - - 31° 70.8° 66.2° - - 867.0
5/23 6:10am 12 4 G 5 70° 24% - - 31° 70.8° 66.2° - - 867.0
5/23 6:00am 5 3 G 4 69° 24% - - 31° 70.8° 66.2° - - 867.0